Atlanta, Indiana
Current Conditions -  °F | °C
As of 12:55 PM on Saturday 20 Dec 2014 (Local Time) from KTYQ Reporting Station
Overcast Overcast  
Wind Chill: 31°   Ceiling: 2500
Heat Index: 31°   Visibility: 10mi
Dew Point: 24°   Wind: 0mph
Humidity: 73%   Direction: NA
Pressure: 30.28"   Gusts: NA
Location:  40.22°N, 86.03°W
Report Text: KTYQ 201755Z AUTO 00000KT 10SM OVC025 00/M05 A3028 RMK AO2 T10031046 11002 21016
Loading
Personal Weather Stations






























Interactive Weather Map New forecast layout! Learn more

10-Day Weather Forecast

Advertisements
Track Severe Weather on mobile